Time;durP1;ratioP1;P1;durP2;ratioP2;P2;SDS_P1;SDS_P2;PMS_P1;PMS_P2;Temp;Humidity;BMP_temperature;BMP_pressure;BME280_temperature;BME280_humidity;BME280_pressure;Samples;Min_cycle;Max_cycle;Signal;HPM_P1;HPM_P2
2021/10/17 00:00:02;;;;;;;12.95;10.75;;;8.60;99.90;;;;;;5056879;28;20229;-84
2021/10/17 00:02:28;;;;;;;11.40;9.43;;;8.50;99.90;;;;;;5056776;28;20413;-84
2021/10/17 00:04:54;;;;;;;12.38;10.15;;;8.30;99.90;;;;;;5056618;28;20114;-84
2021/10/17 00:07:19;;;;;;;12.68;10.43;;;8.40;99.90;;;;;;5056614;28;20043;-84
2021/10/17 00:09:45;;;;;;;12.88;10.82;;;8.20;99.90;;;;;;5056593;28;20029;-84
2021/10/17 00:12:12;;;;;;;15.90;11.20;;;8.10;99.90;;;;;;5056436;28;20488;-84
2021/10/17 00:14:38;;;;;;;13.07;10.57;;;8.10;99.90;;;;;;5056503;28;20487;-84
2021/10/17 00:17:05;;;;;;;12.65;10.55;;;8.20;99.90;;;;;;5056439;28;20074;-84
2021/10/17 00:19:31;;;;;;;13.80;10.73;;;8.20;99.90;;;;;;5056340;28;20025;-84
2021/10/17 00:21:56;;;;;;;10.30;8.32;;;8.30;99.90;;;;;;5074468;28;20032;-84
2021/10/17 00:24:22;;;;;;;13.40;9.63;;;8.40;99.90;;;;;;5074080;28;20433;-84
2021/10/17 00:26:48;;;;;;;13.90;11.32;;;8.40;99.90;;;;;;5074139;28;20032;-84
2021/10/17 00:29:14;;;;;;;13.38;11.02;;;8.40;99.90;;;;;;5055590;28;20021;-84
2021/10/17 00:31:40;;;;;;;10.80;8.98;;;8.30;99.90;;;;;;5057222;28;20024;-84
2021/10/17 00:34:05;;;;;;;13.27;10.27;;;8.40;99.90;;;;;;5056086;28;20032;-84
2021/10/17 00:36:34;;;;;;;12.85;10.10;;;8.60;99.90;;;;;;5056019;28;20035;-84
2021/10/17 00:39:00;;;;;;;18.20;10.85;;;8.30;99.90;;;;;;5073930;28;20052;-84
2021/10/17 00:41:30;;;;;;;13.27;10.77;;;8.30;99.90;;;;;;5055838;28;20071;-84
2021/10/17 00:43:57;;;;;;;11.88;10.15;;;8.10;99.90;;;;;;5055867;28;20065;-84
2021/10/17 00:46:23;;;;;;;12.43;9.70;;;8.00;99.90;;;;;;5073828;28;20468;-84
2021/10/17 00:48:48;;;;;;;12.73;9.82;;;8.00;99.90;;;;;;5055770;28;20028;-84
2021/10/17 00:51:15;;;;;;;13.07;10.48;;;8.20;99.90;;;;;;5055767;28;20047;-84
2021/10/17 00:53:42;;;;;;;11.52;10.32;;;8.10;99.90;;;;;;5055633;28;20051;-84
2021/10/17 00:56:07;;;;;;;12.13;9.55;;;8.10;99.90;;;;;;5055549;28;20035;-83
2021/10/17 00:58:33;;;;;;;15.73;10.93;;;8.10;99.90;;;;;;5055368;28;20045;-84
2021/10/17 01:00:59;;;;;;;13.68;10.40;;;8.10;99.90;;;;;;5055567;28;20396;-84
2021/10/17 01:03:25;;;;;;;14.15;10.07;;;8.10;99.90;;;;;;5055493;28;20032;-84
2021/10/17 01:05:52;;;;;;;11.20;9.30;;;8.20;99.90;;;;;;5055570;28;20460;-84
2021/10/17 01:08:18;;;;;;;7.95;7.00;;;8.20;99.90;;;;;;5055493;28;20020;-84
2021/10/17 01:10:43;;;;;;;12.50;10.38;;;8.40;99.90;;;;;;5055398;28;20075;-84
2021/10/17 01:13:17;;;;;;;14.45;11.27;;;8.40;99.90;;;;;;5055431;28;20108;-84
2021/10/17 01:15:43;;;;;;;15.82;11.63;;;8.10;99.90;;;;;;5055394;28;20115;-84
2021/10/17 01:18:09;;;;;;;10.90;8.90;;;8.10;99.90;;;;;;5055337;28;20369;-84
2021/10/17 01:20:34;;;;;;;12.18;8.63;;;8.10;99.90;;;;;;5055284;28;20024;-84
2021/10/17 01:23:01;;;;;;;13.77;10.38;;;8.20;99.90;;;;;;5073157;28;20021;-84
2021/10/17 01:25:27;;;;;;;10.65;9.23;;;8.20;99.90;;;;;;5055262;28;20036;-84
2021/10/17 01:27:53;;;;;;;14.63;10.55;;;8.30;99.90;;;;;;5055199;28;20020;-84
2021/10/17 01:30:19;;;;;;;13.18;10.73;;;8.30;99.90;;;;;;5055205;28;20396;-84
2021/10/17 01:32:44;;;;;;;9.38;8.15;;;8.30;99.90;;;;;;5055968;28;20377;-84
2021/10/17 01:35:11;;;;;;;12.15;9.70;;;8.40;99.90;;;;;;5055236;28;20425;-84
2021/10/17 01:37:36;;;;;;;12.23;10.05;;;8.40;99.90;;;;;;5055136;28;20024;-84
2021/10/17 01:40:04;;;;;;;11.60;9.80;;;8.40;99.90;;;;;;5054177;28;20395;-84
2021/10/17 01:42:30;;;;;;;13.18;10.57;;;8.40;99.90;;;;;;5055178;28;20025;-84
2021/10/17 01:44:55;;;;;;;11.13;8.93;;;8.40;99.90;;;;;;5054974;28;20510;-84
2021/10/17 01:47:21;;;;;;;13.00;10.25;;;8.40;99.90;;;;;;5055044;28;20021;-83
2021/10/17 01:49:47;;;;;;;13.07;9.82;;;8.40;99.90;;;;;;5054973;28;20025;-84
2021/10/17 01:52:13;;;;;;;7.88;6.18;;;8.40;99.90;;;;;;5055094;28;20024;-84
2021/10/17 01:54:39;;;;;;;13.52;10.20;;;8.60;99.90;;;;;;5054963;28;20050;-84
2021/10/17 01:57:05;;;;;;;12.15;10.40;;;8.60;99.90;;;;;;5072953;28;20036;-84
2021/10/17 01:59:30;;;;;;;11.70;9.85;;;8.50;99.90;;;;;;5054911;28;20025;-84
2021/10/17 02:01:56;;;;;;;12.02;9.63;;;8.40;99.90;;;;;;5072849;28;20025;-84
2021/10/17 02:04:22;;;;;;;11.77;9.32;;;8.40;99.90;;;;;;5054773;28;20124;-84
2021/10/17 02:06:47;;;;;;;13.68;10.07;;;8.30;99.90;;;;;;5054815;28;20396;-84
2021/10/17 02:09:13;;;;;;;11.45;9.20;;;8.50;99.90;;;;;;5054839;28;20021;-84
2021/10/17 02:11:39;;;;;;;12.75;9.90;;;8.50;99.90;;;;;;5054794;28;20028;-84
2021/10/17 02:14:05;;;;;;;14.27;9.30;;;8.40;99.90;;;;;;5054738;28;20055;-84
2021/10/17 02:16:31;;;;;;;10.95;8.73;;;8.50;99.90;;;;;;5054774;28;20028;-84
2021/10/17 02:18:56;;;;;;;13.55;10.70;;;8.50;99.90;;;;;;5054645;28;20025;-84
2021/10/17 02:21:22;;;;;;;11.45;7.70;;;8.60;99.90;;;;;;5054620;28;20024;-84
2021/10/17 02:23:48;;;;;;;13.05;10.45;;;8.60;99.90;;;;;;5054495;28;20032;-84
2021/10/17 02:26:14;;;;;;;11.85;9.35;;;8.60;99.90;;;;;;5072654;28;20082;-85
2021/10/17 02:28:40;;;;;;;12.30;9.82;;;8.50;99.90;;;;;;5054612;28;20028;-84
2021/10/17 02:31:05;;;;;;;14.40;11.02;;;8.40;99.90;;;;;;5054612;28;20025;-84
2021/10/17 02:33:32;;;;;;;11.20;8.88;;;8.60;99.90;;;;;;5054565;28;20037;-84
2021/10/17 02:35:58;;;;;;;12.93;9.65;;;8.30;99.90;;;;;;5054509;28;20032;-84
2021/10/17 02:38:23;;;;;;;10.65;8.18;;;8.30;99.90;;;;;;5054492;28;20029;-84
2021/10/17 02:40:49;;;;;;;11.15;8.13;;;8.50;99.90;;;;;;5054507;28;20437;-84
2021/10/17 02:43:15;;;;;;;13.18;9.57;;;8.40;99.90;;;;;;5054465;28;20029;-84
2021/10/17 02:45:41;;;;;;;11.88;9.77;;;8.30;99.90;;;;;;5054377;28;20051;-85
2021/10/17 02:48:06;;;;;;;11.07;9.30;;;8.20;99.90;;;;;;5054423;28;20123;-84
2021/10/17 02:50:32;;;;;;;10.25;8.32;;;8.30;99.90;;;;;;5054405;28;20120;-84
2021/10/17 02:52:58;;;;;;;12.70;9.38;;;8.30;99.90;;;;;;5075073;28;20032;-84
2021/10/17 02:55:24;;;;;;;13.32;10.20;;;8.30;99.90;;;;;;5057965;28;20021;-84
2021/10/17 02:57:50;;;;;;;13.35;9.95;;;8.10;99.90;;;;;;5057596;28;20048;-84
2021/10/17 03:00:17;;;;;;;11.10;8.88;;;8.10;99.90;;;;;;5057843;28;20025;-84
2021/10/17 03:02:43;;;;;;;14.15;9.05;;;8.00;99.90;;;;;;5057886;28;20116;-84
2021/10/17 03:05:09;;;;;;;10.82;8.20;;;8.20;99.90;;;;;;5057706;28;20124;-84
2021/10/17 03:07:34;;;;;;;11.77;8.80;;;8.00;99.90;;;;;;5075742;28;20028;-84
2021/10/17 03:10:00;;;;;;;11.70;8.85;;;8.20;99.90;;;;;;5057744;28;20017;-84
2021/10/17 03:12:26;;;;;;;11.75;8.77;;;8.20;99.90;;;;;;5057686;28;20029;-84
2021/10/17 03:14:52;;;;;;;9.55;7.07;;;8.20;99.90;;;;;;5075601;28;20535;-84
2021/10/17 03:17:17;;;;;;;11.60;9.98;;;8.30;99.90;;;;;;5057657;28;20480;-84
2021/10/17 03:19:43;;;;;;;11.25;9.23;;;8.10;99.90;;;;;;5057552;28;20024;-84
2021/10/17 03:22:09;;;;;;;10.02;8.05;;;8.20;99.90;;;;;;5057571;28;20029;-84
2021/10/17 03:24:34;;;;;;;11.55;9.55;;;8.30;99.90;;;;;;5075335;28;20024;-84
2021/10/17 03:27:00;;;;;;;11.68;9.32;;;8.20;99.90;;;;;;5075419;28;20052;-84
2021/10/17 03:29:26;;;;;;;8.18;6.65;;;8.30;99.90;;;;;;5057291;28;20029;-84
2021/10/17 03:31:51;;;;;;;9.93;8.13;;;8.40;99.90;;;;;;5057275;28;20047;-84
2021/10/17 03:34:17;;;;;;;13.18;10.40;;;8.50;99.90;;;;;;5057390;28;20025;-84
2021/10/17 03:36:43;;;;;;;10.85;9.02;;;8.40;99.90;;;;;;5075225;28;20024;-84
2021/10/17 03:39:08;;;;;;;10.00;7.70;;;8.20;99.90;;;;;;5057363;28;20035;-84
2021/10/17 03:41:34;;;;;;;10.55;8.10;;;8.10;99.90;;;;;;5057179;28;20033;-84
2021/10/17 03:44:00;;;;;;;14.35;8.35;;;8.30;99.90;;;;;;5057059;28;20503;-84
2021/10/17 03:46:26;;;;;;;13.15;9.75;;;8.50;99.90;;;;;;5056960;28;20055;-85
2021/10/17 03:48:51;;;;;;;13.10;10.10;;;8.40;99.90;;;;;;5075256;28;20021;-84
2021/10/17 03:51:17;;;;;;;12.30;8.68;;;8.00;99.90;;;;;;5057028;28;20484;-84
2021/10/17 03:53:43;;;;;;;12.20;9.57;;;7.80;99.90;;;;;;5056957;28;20426;-85
2021/10/17 03:56:09;;;;;;;10.52;8.73;;;7.60;99.90;;;;;;5056720;28;20365;-84
2021/10/17 03:58:34;;;;;;;12.90;9.10;;;7.70;99.90;;;;;;5056606;28;20051;-84
2021/10/17 04:01:00;;;;;;;11.70;7.72;;;7.50;99.90;;;;;;5056817;28;20388;-84
2021/10/17 04:03:26;;;;;;;10.93;8.50;;;7.50;99.90;;;;;;5073636;28;20032;-84
2021/10/17 04:05:52;;;;;;;14.88;9.90;;;7.50;99.90;;;;;;5056707;28;20074;-85
2021/10/17 04:08:17;;;;;;;12.00;8.90;;;7.30;99.90;;;;;;5056760;28;20388;-85
2021/10/17 04:10:43;;;;;;;12.88;9.13;;;7.30;99.90;;;;;;5056789;28;20020;-85
2021/10/17 04:13:09;;;;;;;13.70;9.18;;;7.30;99.90;;;;;;5056567;28;20433;-84
2021/10/17 04:15:38;;;;;;;11.05;7.75;;;7.20;99.90;;;;;;5056556;28;20062;-85
2021/10/17 04:18:04;;;;;;;11.52;8.57;;;7.50;99.90;;;;;;5056493;28;20024;-84
2021/10/17 04:20:30;;;;;;;14.10;8.63;;;7.60;99.90;;;;;;5056410;28;20110;-85
2021/10/17 04:22:56;;;;;;;12.70;9.07;;;7.70;99.90;;;;;;5074188;28;20091;-85
2021/10/17 04:25:22;;;;;;;10.75;8.07;;;7.70;99.90;;;;;;5056259;28;20086;-84
2021/10/17 04:27:48;;;;;;;12.63;9.65;;;7.70;99.90;;;;;;5056180;28;20027;-85
2021/10/17 04:30:15;;;;;;;12.85;9.40;;;7.50;99.90;;;;;;5056206;28;20070;-84
2021/10/17 04:32:41;;;;;;;18.83;11.85;;;7.40;99.90;;;;;;5056762;28;20036;-85
2021/10/17 04:35:08;;;;;;;14.93;10.38;;;7.30;99.90;;;;;;5056099;28;20391;-84
2021/10/17 04:37:35;;;;;;;17.77;11.60;;;7.10;99.90;;;;;;5074177;28;20475;-84
2021/10/17 04:40:06;;;;;;;18.58;11.15;;;6.90;99.90;;;;;;5056273;28;20020;-84
2021/10/17 04:42:32;;;;;;;24.02;11.52;;;6.90;99.90;;;;;;5073959;28;20082;-85
2021/10/17 04:44:59;;;;;;;40.42;11.90;;;6.80;99.90;;;;;;5073804;28;20431;-84
2021/10/17 04:47:24;;;;;;;28.35;12.40;;;6.70;99.90;;;;;;5055835;28;20023;-84
2021/10/17 04:49:50;;;;;;;27.73;11.52;;;6.80;99.90;;;;;;5055788;28;20483;-85
2021/10/17 04:52:16;;;;;;;29.60;11.57;;;7.00;99.90;;;;;;5073711;28;20024;-84
2021/10/17 04:54:41;;;;;;;21.67;10.77;;;7.00;99.90;;;;;;5055772;28;20021;-84
2021/10/17 04:57:07;;;;;;;14.75;9.10;;;7.00;99.90;;;;;;5073366;28;20044;-84
2021/10/17 04:59:34;;;;;;;19.80;8.82;;;7.50;99.90;;;;;;5055732;28;20103;-84
2021/10/17 05:02:00;;;;;;;29.65;9.48;;;7.50;99.90;;;;;;5055586;28;20035;-84
2021/10/17 05:04:25;;;;;;;15.05;9.38;;;7.70;99.90;;;;;;5055481;28;20036;-84
2021/10/17 05:06:51;;;;;;;21.42;8.57;;;7.90;99.90;;;;;;5073558;28;20017;-84
2021/10/17 05:09:17;;;;;;;20.30;7.88;;;7.80;99.90;;;;;;5073449;28;20017;-84
2021/10/17 05:11:42;;;;;;;20.08;10.95;;;7.90;99.90;;;;;;5056334;28;20519;-84
2021/10/17 05:14:08;;;;;;;25.35;10.93;;;7.80;99.90;;;;;;5055290;28;20082;-84
2021/10/17 05:16:34;;;;;;;24.05;10.10;;;7.70;99.90;;;;;;5073459;28;20025;-84
2021/10/17 05:19:00;;;;;;;26.13;11.05;;;7.30;99.90;;;;;;5055681;28;20158;-84
2021/10/17 05:21:28;;;;;;;18.52;10.70;;;7.00;99.90;;;;;;5055325;28;20035;-84
2021/10/17 05:23:57;;;;;;;17.00;9.82;;;6.80;99.90;;;;;;5055221;28;20383;-84
2021/10/17 05:26:22;;;;;;;12.52;10.18;;;6.70;99.90;;;;;;5055821;28;20028;-84
2021/10/17 05:28:48;;;;;;;12.82;10.20;;;6.50;99.90;;;;;;5055306;28;20025;-85
2021/10/17 05:31:14;;;;;;;11.30;9.25;;;6.40;99.90;;;;;;5055194;28;20090;-84
2021/10/17 05:33:40;;;;;;;9.70;7.68;;;6.50;99.90;;;;;;5055097;28;20029;-84
2021/10/17 05:36:06;;;;;;;10.70;8.93;;;6.90;99.90;;;;;;5055131;28;20029;-84
2021/10/17 05:38:32;;;;;;;11.63;9.63;;;6.60;99.90;;;;;;5055111;28;20506;-84
2021/10/17 05:40:58;;;;;;;9.73;7.38;;;6.50;99.90;;;;;;5055113;28;20025;-84
2021/10/17 05:43:24;;;;;;;10.48;8.68;;;6.70;99.90;;;;;;5055059;28;20035;-84
2021/10/17 05:45:50;;;;;;;15.02;9.40;;;6.90;99.90;;;;;;5055044;28;20032;-84
2021/10/17 05:48:15;;;;;;;10.85;9.18;;;6.90;99.90;;;;;;5073007;28;20029;-84
2021/10/17 05:50:41;;;;;;;11.00;8.32;;;6.80;99.90;;;;;;5054987;28;20020;-84
2021/10/17 05:53:07;;;;;;;11.13;8.75;;;6.50;99.90;;;;;;5054913;28;20020;-83
2021/10/17 05:55:33;;;;;;;11.40;9.02;;;6.30;99.90;;;;;;5054946;28;20025;-84
2021/10/17 05:57:59;;;;;;;12.07;8.90;;;6.30;99.90;;;;;;5054754;28;20127;-84
2021/10/17 06:00:25;;;;;;;12.50;8.73;;;6.30;99.90;;;;;;5054832;28;20052;-84
2021/10/17 06:02:50;;;;;;;8.65;6.40;;;6.30;99.90;;;;;;5054917;28;20107;-84
2021/10/17 06:05:16;;;;;;;11.68;9.13;;;6.40;99.90;;;;;;5054738;28;20041;-83
2021/10/17 06:07:42;;;;;;;9.80;7.47;;;6.40;99.90;;;;;;5054800;28;20086;-84
2021/10/17 06:10:13;;;;;;;13.18;8.77;;;6.80;99.90;;;;;;5054849;28;20021;-84
2021/10/17 06:12:40;;;;;;;12.60;9.63;;;7.10;99.90;;;;;;5072772;28;20016;-84
2021/10/17 06:15:08;;;;;;;10.18;7.93;;;6.60;99.90;;;;;;5054830;28;20028;-84
2021/10/17 06:17:34;;;;;;;11.77;7.75;;;6.70;99.90;;;;;;5054835;28;20391;-83
2021/10/17 06:20:00;;;;;;;21.73;8.43;;;6.80;99.90;;;;;;5054819;28;20029;-83
2021/10/17 06:22:26;;;;;;;8.23;6.60;;;6.80;99.90;;;;;;5054882;28;20492;-84
2021/10/17 06:24:51;;;;;;;9.13;6.85;;;6.90;99.90;;;;;;5054734;28;20059;-83
2021/10/17 06:27:17;;;;;;;11.48;9.32;;;7.20;99.90;;;;;;5074546;28;20506;-83
2021/10/17 06:29:43;;;;;;;10.02;8.02;;;7.60;99.90;;;;;;5058544;28;20021;-84
2021/10/17 06:32:09;;;;;;;12.68;9.35;;;7.20;99.90;;;;;;5058465;28;20077;-84
2021/10/17 06:34:35;;;;;;;12.75;9.38;;;6.90;99.90;;;;;;5058451;28;20024;-84
2021/10/17 06:37:01;;;;;;;13.98;9.18;;;6.90;99.90;;;;;;5058392;28;20131;-84
2021/10/17 06:39:26;;;;;;;13.80;9.43;;;6.80;99.90;;;;;;5058603;28;20032;-84
2021/10/17 06:41:52;;;;;;;14.32;10.05;;;6.70;99.90;;;;;;5058237;28;20544;-83
2021/10/17 06:44:19;;;;;;;12.65;9.30;;;6.90;99.90;;;;;;5058506;28;20059;-84
2021/10/17 06:46:45;;;;;;;13.65;10.38;;;7.10;99.90;;;;;;5058250;28;20055;-84
2021/10/17 06:49:11;;;;;;;11.23;8.63;;;7.50;99.90;;;;;;5058437;28;20047;-84
2021/10/17 06:51:37;;;;;;;14.38;9.65;;;7.60;99.90;;;;;;5058023;28;20021;-83
2021/10/17 06:54:02;;;;;;;13.88;7.78;;;7.40;99.90;;;;;;5058076;28;20020;-84
2021/10/17 06:56:28;;;;;;;15.77;10.10;;;7.30;99.90;;;;;;5058489;28;20360;-84
2021/10/17 06:58:54;;;;;;;16.00;9.73;;;7.40;99.90;;;;;;5057639;28;20098;-84
2021/10/17 07:01:20;;;;;;;16.25;10.80;;;7.30;99.90;;;;;;5058724;28;20036;-84
2021/10/17 07:03:46;;;;;;;16.13;11.90;;;7.20;99.90;;;;;;5057836;28;20064;-84
2021/10/17 07:06:13;;;;;;;27.45;17.20;;;7.20;99.90;;;;;;5057823;28;20472;-83
2021/10/17 07:08:38;;;;;;;16.42;10.88;;;7.20;99.90;;;;;;5057846;28;20475;-83
2021/10/17 07:11:04;;;;;;;15.77;9.85;;;7.30;99.90;;;;;;5057725;28;20028;-84
2021/10/17 07:13:30;;;;;;;12.77;9.57;;;7.50;99.90;;;;;;5057683;28;20551;-84
2021/10/17 07:15:55;;;;;;;10.60;7.07;;;7.50;99.90;;;;;;5057991;28;20043;-84
2021/10/17 07:18:21;;;;;;;13.25;7.75;;;7.70;99.90;;;;;;5057591;28;20387;-84
2021/10/17 07:20:47;;;;;;;11.73;8.07;;;7.70;99.90;;;;;;5057633;28;20048;-84
2021/10/17 07:23:13;;;;;;;10.68;8.55;;;7.90;99.90;;;;;;5057519;28;20517;-84
2021/10/17 07:25:39;;;;;;;11.63;8.35;;;7.90;99.90;;;;;;5057463;28;20059;-84
2021/10/17 07:28:05;;;;;;;12.98;7.78;;;7.90;99.90;;;;;;5057414;28;20020;-84
2021/10/17 07:30:30;;;;;;;11.55;8.20;;;7.90;99.90;;;;;;5057987;28;20024;-84
2021/10/17 07:32:56;;;;;;;11.60;8.45;;;7.80;99.90;;;;;;5057376;28;20052;-84
2021/10/17 07:35:23;;;;;;;15.43;10.30;;;7.70;99.90;;;;;;5057405;28;20031;-84
2021/10/17 07:37:49;;;;;;;20.17;12.80;;;7.60;99.90;;;;;;5057312;28;20145;-84
2021/10/17 07:40:15;;;;;;;8.13;7.15;;;7.70;99.90;;;;;;5057194;28;20032;-84
2021/10/17 07:42:41;;;;;;;10.05;7.40;;;7.80;99.90;;;;;;5057196;28;20056;-84
2021/10/17 07:45:07;;;;;;;9.93;7.60;;;8.00;99.90;;;;;;5057114;28;20051;-84
2021/10/17 07:47:36;;;;;;;18.90;6.95;;;8.10;99.90;;;;;;5057022;28;20107;-84
2021/10/17 07:50:07;;;;;;;10.35;8.38;;;8.00;99.90;;;;;;5057104;28;20070;-83
2021/10/17 07:52:33;;;;;;;11.00;7.70;;;8.10;99.90;;;;;;5057017;28;20480;-84
2021/10/17 07:54:58;;;;;;;10.20;7.70;;;8.10;99.90;;;;;;5074775;28;20024;-83
2021/10/17 07:57:24;;;;;;;12.35;7.90;;;8.10;99.90;;;;;;5056599;28;20075;-84
2021/10/17 07:59:50;;;;;;;12.27;6.93;;;8.20;99.90;;;;;;5056852;28;20078;-84
2021/10/17 08:02:15;;;;;;;11.68;6.60;;;8.30;99.90;;;;;;5056724;28;20484;-84
2021/10/17 08:04:47;;;;;;;10.18;7.13;;;8.30;99.90;;;;;;5056609;28;20112;-84
2021/10/17 08:07:14;;;;;;;10.45;8.30;;;8.30;99.90;;;;;;5056723;28;20025;-84
2021/10/17 08:09:39;;;;;;;14.45;7.32;;;8.40;99.90;;;;;;5056782;28;20571;-84
2021/10/17 08:12:05;;;;;;;10.95;7.38;;;8.50;99.90;;;;;;5056963;28;20056;-84
2021/10/17 08:14:31;;;;;;;9.30;6.47;;;8.60;99.90;;;;;;5056516;28;20029;-84
2021/10/17 08:16:56;;;;;;;7.88;6.30;;;8.70;99.90;;;;;;5056542;28;20027;-84
2021/10/17 08:19:22;;;;;;;8.88;6.07;;;8.80;99.90;;;;;;5056547;28;20024;-84
2021/10/17 08:21:48;;;;;;;8.05;6.75;;;8.70;99.90;;;;;;5074248;28;20031;-84
2021/10/17 08:24:14;;;;;;;9.93;6.70;;;8.80;99.90;;;;;;5074218;28;20024;-84
2021/10/17 08:26:40;;;;;;;10.68;7.20;;;8.90;99.90;;;;;;5056255;28;20063;-83
2021/10/17 08:29:06;;;;;;;8.90;6.05;;;8.90;99.90;;;;;;5056159;28;20064;-84
2021/10/17 08:31:32;;;;;;;8.73;6.03;;;9.00;99.90;;;;;;5056288;28;20530;-84
2021/10/17 08:33:57;;;;;;;10.75;6.43;;;9.10;99.90;;;;;;5056248;28;20032;-84
2021/10/17 08:36:23;;;;;;;11.45;7.07;;;9.10;99.90;;;;;;5056374;28;20507;-84
2021/10/17 08:38:49;;;;;;;8.55;6.45;;;9.00;99.90;;;;;;5056222;28;20033;-84
2021/10/17 08:41:15;;;;;;;7.22;6.07;;;9.30;99.90;;;;;;5056006;28;20028;-84
2021/10/17 08:43:41;;;;;;;7.88;6.47;;;9.40;99.90;;;;;;5055937;28;20024;-84
2021/10/17 08:46:11;;;;;;;7.72;6.35;;;9.40;99.90;;;;;;5055962;28;20495;-84
2021/10/17 08:48:38;;;;;;;9.40;6.50;;;9.60;99.90;;;;;;5055945;28;20017;-84
2021/10/17 08:51:06;;;;;;;6.10;5.30;;;9.60;99.90;;;;;;5055446;28;20024;-85
2021/10/17 08:53:31;;;;;;;6.57;5.88;;;10.00;99.90;;;;;;5073762;28;20070;-84
2021/10/17 08:55:57;;;;;;;7.22;5.90;;;10.20;99.90;;;;;;5073425;28;20020;-85
2021/10/17 08:58:23;;;;;;;7.88;5.15;;;10.50;99.90;;;;;;5055261;28;20506;-84
2021/10/17 09:00:49;;;;;;;9.18;5.85;;;10.50;99.90;;;;;;5055640;28;20024;-85
2021/10/17 09:03:30;;;;;;;7.28;6.10;;;10.50;99.90;;;;;;5055537;28;20025;-85
2021/10/17 09:05:55;;;;;;;6.72;6.03;;;10.80;99.90;;;;;;5055646;28;20020;-85
2021/10/17 09:08:27;;;;;;;7.43;6.10;;;11.10;99.90;;;;;;5055611;28;20024;-85
2021/10/17 09:10:53;;;;;;;8.75;7.70;;;11.30;99.90;;;;;;5073497;28;20016;-84
2021/10/17 09:13:19;;;;;;;9.50;7.32;;;11.40;99.90;;;;;;5055487;28;20017;-84
2021/10/17 09:15:45;;;;;;;15.00;9.48;;;11.40;99.90;;;;;;5073453;28;20077;-84
2021/10/17 09:18:19;;;;;;;11.27;6.90;;;11.40;99.90;;;;;;5073332;28;20021;-84
2021/10/17 09:20:49;;;;;;;7.68;6.07;;;11.70;99.90;;;;;;5055477;28;20392;-84
2021/10/17 09:23:14;;;;;;;7.25;6.25;;;12.10;99.90;;;;;;5055296;28;20333;-84
2021/10/17 09:25:40;;;;;;;6.20;5.57;;;12.30;99.90;;;;;;5055364;28;20020;-84
2021/10/17 09:28:21;;;;;;;9.50;7.30;;;12.60;99.90;;;;;;5055270;28;20028;-84
2021/10/17 09:31:26;;;;;;;7.20;6.07;;;12.50;99.90;;;;;;5055192;28;20020;-85
2021/10/17 09:33:54;;;;;;;7.32;5.57;;;12.90;99.90;;;;;;5042573;28;20059;-85
2021/10/17 09:36:22;;;;;;;9.98;7.22;;;13.20;99.90;;;;;;5055107;28;20082;-85
2021/10/17 09:38:52;;;;;;;10.05;7.88;;;13.30;99.90;;;;;;5055105;28;20051;-85
2021/10/17 09:41:21;;;;;;;10.50;8.68;;;13.60;99.90;;;;;;5055070;28;20032;-85
2021/10/17 09:43:55;;;;;;;13.75;11.48;;;13.30;99.90;;;;;;5073062;28;20021;-85
2021/10/17 09:46:22;;;;;;;15.23;12.10;;;13.00;99.90;;;;;;5055092;28;20383;-84
2021/10/17 09:48:47;;;;;;;13.98;10.15;;;13.20;99.90;;;;;;5055079;28;20025;-85
2021/10/17 09:51:26;;;;;;;10.18;8.20;;;13.40;99.90;;;;;;5055004;28;20480;-85
2021/10/17 09:53:57;;;;;;;11.13;8.50;;;13.90;99.90;;;;;;5055024;28;20021;-84
2021/10/17 09:56:30;;;;;;;10.10;7.57;;;14.20;99.90;;;;;;5054858;28;20445;-84
2021/10/17 09:59:09;;;;;;;12.93;9.80;;;14.20;99.90;;;;;;5054761;28;20048;-85
2021/10/17 10:01:36;;;;;;;15.73;11.93;;;13.90;99.90;;;;;;5074042;28;20028;-85
2021/10/17 10:04:04;;;;;;;17.83;13.77;;;14.10;99.90;;;;;;5058901;28;20483;-85
2021/10/17 10:06:31;;;;;;;9.70;6.85;;;14.30;99.90;;;;;;5058943;28;20031;-85
2021/10/17 10:09:00;;;;;;;17.40;13.98;;;15.00;99.90;;;;;;5076908;28;20052;-85
2021/10/17 10:11:28;;;;;;;16.08;12.90;;;15.30;99.90;;;;;;5058863;28;20029;-84
2021/10/17 10:14:08;;;;;;;20.25;13.20;;;15.00;99.90;;;;;;5058788;28;20051;-84
2021/10/17 10:16:36;;;;;;;16.80;13.32;;;14.60;99.90;;;;;;5058799;28;20028;-85
2021/10/17 10:19:07;;;;;;;24.83;16.85;;;14.60;99.90;;;;;;5058705;28;20384;-84
2021/10/17 10:21:34;;;;;;;21.58;14.15;;;14.50;99.90;;;;;;5076621;28;20431;-84
2021/10/17 10:24:06;;;;;;;17.88;11.20;;;14.90;99.90;;;;;;5076543;28;20387;-84
2021/10/17 10:26:33;;;;;;;20.58;15.68;;;15.40;99.90;;;;;;5058654;28;20414;-84
2021/10/17 10:29:00;;;;;;;18.27;13.27;;;15.50;99.90;;;;;;5076702;28;20103;-84
2021/10/17 10:31:44;;;;;;;19.05;12.95;;;16.00;99.90;;;;;;5058489;28;20120;-84
2021/10/17 10:34:36;;;;;;;16.75;13.02;;;16.20;99.90;;;;;;5058718;28;20028;-84
2021/10/17 10:37:46;;;;;;;22.23;15.82;;;16.40;99.90;;;;;;5058181;28;20506;-84
2021/10/17 10:40:13;;;;;;;15.00;11.68;;;16.70;99.90;;;;;;5021749;28;20484;-85
2021/10/17 10:42:50;;;;;;;15.70;11.07;;;17.10;99.90;;;;;;5059082;28;20460;-84
2021/10/17 10:45:34;;;;;;;20.08;13.82;;;16.80;99.90;;;;;;5058209;28;20031;-84
2021/10/17 10:48:12;;;;;;;15.50;10.50;;;16.80;99.90;;;;;;5058377;28;20471;-84
2021/10/17 10:50:38;;;;;;;15.10;11.80;;;17.00;99.90;;;;;;5058200;28;20113;-85
2021/10/17 10:53:04;;;;;;;13.32;10.10;;;17.40;99.90;;;;;;5058732;28;20483;-85
2021/10/17 10:55:48;;;;;;;12.82;9.88;;;17.80;99.90;;;;;;5058153;28;20048;-85
2021/10/17 10:58:27;;;;;;;11.87;9.00;;;18.10;99.90;;;;;;5057039;28;20400;-85
2021/10/17 11:00:55;;;;;;;11.57;8.88;;;18.10;99.90;;;;;;5056782;28;20025;-85
2021/10/17 11:03:24;;;;;;;12.68;9.52;;;18.20;99.90;;;;;;5056674;28;20032;-85
2021/10/17 11:06:05;;;;;;;11.18;8.32;;;18.50;99.90;;;;;;5074700;28;20021;-85
2021/10/17 11:08:32;;;;;;;12.02;8.82;;;18.80;99.90;;;;;;5056665;28;20024;-85
2021/10/17 11:10:58;;;;;;;12.55;8.15;;;18.80;99.90;;;;;;5056572;28;20077;-86
2021/10/17 11:13:40;;;;;;;12.30;9.30;;;18.90;99.90;;;;;;5056177;28;20420;-85
2021/10/17 11:16:08;;;;;;;15.48;10.25;;;18.60;99.90;;;;;;5056546;28;20392;-84
2021/10/17 11:18:37;;;;;;;18.65;11.07;;;18.60;99.90;;;;;;5056454;28;20145;-85
2021/10/17 11:21:05;;;;;;;14.65;10.35;;;19.10;99.90;;;;;;5056441;28;20088;-85
2021/10/17 11:23:33;;;;;;;10.73;7.90;;;18.90;99.90;;;;;;5074359;28;20100;-84
2021/10/17 11:26:03;;;;;;;11.02;8.82;;;19.90;99.90;;;;;;5056360;28;20020;-85
2021/10/17 11:28:30;;;;;;;10.52;7.50;;;19.60;99.90;;;;;;5074297;28;20052;-85
2021/10/17 11:31:03;;;;;;;14.52;10.32;;;19.30;99.90;;;;;;5074602;28;20032;-85
2021/10/17 11:33:30;;;;;;;13.35;10.27;;;18.80;99.90;;;;;;5056242;28;20021;-85
2021/10/17 11:35:56;;;;;;;12.02;9.25;;;18.90;99.90;;;;;;5056173;28;20533;-85
2021/10/17 11:38:23;;;;;;;17.23;8.30;;;18.60;99.90;;;;;;5056196;28;20024;-84
2021/10/17 11:40:48;;;;;;;12.45;8.82;;;18.10;99.90;;;;;;5056119;28;20418;-85
2021/10/17 11:43:15;;;;;;;10.88;8.68;;;17.30;99.90;;;;;;5055899;28;20070;-85
2021/10/17 11:45:43;;;;;;;12.95;8.73;;;16.80;99.90;;;;;;5056318;28;20024;-85
2021/10/17 11:48:13;;;;;;;12.95;10.65;;;16.20;99.90;;;;;;5055969;28;20387;-85
2021/10/17 11:50:41;;;;;;;15.13;8.48;;;15.70;99.90;;;;;;5073880;28;20127;-84
2021/10/17 11:53:12;;;;;;;13.90;10.98;;;15.30;99.90;;;;;;5056001;28;20029;-84
2021/10/17 11:55:43;;;;;;;11.40;9.00;;;15.20;99.90;;;;;;5055876;28;20067;-84
2021/10/17 11:58:18;;;;;;;12.30;9.75;;;15.20;99.90;;;;;;5012149;28;1266832;-84
2021/10/17 12:00:46;;;;;;;16.42;11.52;;;14.90;99.90;;;;;;5056947;28;20040;-85
2021/10/17 12:03:12;;;;;;;12.88;9.02;;;14.70;99.90;;;;;;5056730;28;20027;-85
2021/10/17 12:05:45;;;;;;;17.48;12.88;;;14.70;99.90;;;;;;5056649;28;20031;-84
2021/10/17 12:08:22;;;;;;;13.07;9.48;;;15.00;99.90;;;;;;5056642;28;20017;-85
2021/10/17 12:11:14;;;;;;;13.82;10.43;;;16.70;99.90;;;;;;5074599;28;20024;-84
2021/10/17 12:13:42;;;;;;;13.15;8.45;;;17.90;99.90;;;;;;5053279;28;20407;-85
2021/10/17 12:16:20;;;;;;;14.52;9.50;;;17.80;99.90;;;;;;5056422;28;20021;-85
2021/10/17 12:18:53;;;;;;;12.52;9.30;;;17.60;99.90;;;;;;5057085;28;20036;-85
2021/10/17 12:21:24;;;;;;;12.85;9.52;;;18.20;99.90;;;;;;5056435;28;20029;-84
2021/10/17 12:23:52;;;;;;;12.43;9.80;;;18.60;99.90;;;;;;5056179;28;20399;-84
2021/10/17 12:26:21;;;;;;;17.40;11.05;;;19.40;99.90;;;;;;5073978;28;20099;-85
2021/10/17 12:29:11;;;;;;;13.07;9.82;;;20.20;99.90;;;;;;5056354;28;20024;-85
2021/10/17 12:31:42;;;;;;;12.73;10.15;;;19.50;99.90;;;;;;5074444;28;20070;-84
2021/10/17 12:34:08;;;;;;;13.10;10.27;;;19.90;99.90;;;;;;5056186;28;20020;-85
2021/10/17 12:36:36;;;;;;;14.52;10.70;;;21.10;99.90;;;;;;5056222;28;20025;-85
2021/10/17 12:39:05;;;;;;;12.75;9.90;;;22.00;99.90;;;;;;5056139;28;20047;-85
2021/10/17 12:41:31;;;;;;;10.98;8.05;;;22.20;99.90;;;;;;5056046;28;20391;-85
2021/10/17 12:44:05;;;;;;;10.48;7.93;;;22.80;99.90;;;;;;5057030;28;20353;-85